Portada
METAR-TAF:

METAR-TAF

Aeroports :

Novosibirsk, Rússia

latitud: 55-01N, longitud: 082-38E, altitud: 111 m

Observació

L'informe es va fer fa 15 minuts, a les 06:30 UTC
Vent 4 kt del Oest
Temperatura -2°C
Humitat 59%
Pressió 1022 hPa
Visibilitat 10 km o més
Cel ennuvolat a una alçada de 3900 ft

METAR: UNNT 190630Z 27002MPS 9999 BKN039 M02/M09 Q1022 R25/690142 R34/690240 NOSIG RMK QFE756/1009

Hora: 13:45 (06:45 UTC)

Pronòstic

L'informe es va fer fa 1 hora i 45 minuts, a les 05:00 UTC
Pronòstic vàlid del 19 a les 06 UTC al 20 a les 06 UTC
Vent 6 kt del Nord amb ràfegues de 16 kt
Visibilitat 10 km o més
Cel ennuvolat a una alçada de 4000 ft, Cumulonimbus.
Temporalment
l' 19 a les 06 UTC al 19 a les 12 UTC
Cel ennuvolat a una alçada de 1600 ft, Cumulonimbus.
xàfecs de neu, pluja

TAF: UNNT 190500Z 1906/2006 36003G08MPS 9999 BKN040CB TEMPO 1906/1912 -SHSNRA BKN016CB

Observacions i pronòstics meteorològics de més de 4000 aeroports (METAR i TAF).

Les estacions disponibles són els punts grocs i vermells al mapa.

Posi el ratolí al punt desitjat per veure el nom de l'estació.

Feu clic per veure les observacions i els pronòstics meteorològics.

Per canviar el mapa: feu clic els botons verds amb una creu de color negre per apropar; al botó verd amb un guió per allunyar la imatge; o en les fletxes verdes per a mapes adjacents.


METAR-TAF: